Terminal Aerodrome Forecast
Issued by NWS

Home | Current Version | Previous Version | Text Only | Print | Product List | Glossary On
Versions: 1 2 3 4 5 6 7 8 9 10 11 12 13 14 15 16 17 18 19 20 21 22 23 24 25 26 27 28 29 30
000
FTUS45 KGJT 042343
TAFDRO
TAF
KDRO 042343Z 0500/0524 28010KT P6SM VCTS BKN100CB
      TEMPO 0500/0502 VRB10G22KT -TSRA BKN070CB
     FM050200 13007KT P6SM VCSH SCT080 BKN100
     FM050500 02007KT P6SM VCSH OVC060
     FM050900 10006KT P6SM -SHRA BKN030
     FM051700 25008KT P6SM -TSRA SCT030 BKN050CB=

USA.gov is the U.S. government's official web portal to all federal, state and local government web resources and services.